Time;durP1;ratioP1;P1;durP2;ratioP2;P2;SDS_P1;SDS_P2;PMS_P1;PMS_P2;Temp;Humidity;BMP_temperature;BMP_pressure;BME280_temperature;BME280_humidity;BME280_pressure;Samples;Min_cycle;Max_cycle;Signal;HPM_P1;HPM_P2
2023/11/08 00:01:04;;;;;;;0.60;0.30;;;7.90;99.90;;;;;;6236477;23;20070;-79
2023/11/08 00:03:31;;;;;;;0.28;0.20;;;7.90;99.90;;;;;;6184593;23;20504;-79
2023/11/08 00:05:58;;;;;;;0.35;0.30;;;7.90;99.90;;;;;;6211567;23;20047;-79
2023/11/08 00:08:25;;;;;;;0.55;0.28;;;7.90;99.90;;;;;;6211157;23;20594;-79
2023/11/08 00:10:51;;;;;;;0.45;0.40;;;7.90;99.90;;;;;;6236908;23;20027;-79
2023/11/08 00:13:20;;;;;;;0.10;0.10;;;7.90;99.90;;;;;;6210234;23;20390;-79
2023/11/08 00:15:50;;;;;;;0.80;0.30;;;7.90;99.90;;;;;;6186659;23;20354;-79
2023/11/08 00:18:17;;;;;;;0.40;0.30;;;8.00;99.90;;;;;;6235179;23;20121;-79
2023/11/08 00:20:45;;;;;;;0.32;0.30;;;7.90;99.90;;;;;;6186900;23;20817;-80
2023/11/08 00:23:12;;;;;;;0.10;0.10;;;8.00;99.90;;;;;;6211300;23;20028;-79
2023/11/08 00:25:39;;;;;;;0.22;0.22;;;8.00;99.90;;;;;;6211079;23;20044;-78
2023/11/08 00:28:05;;;;;;;0.40;0.40;;;7.90;99.90;;;;;;6236706;23;20025;-79
2023/11/08 00:30:32;;;;;;;0.30;0.30;;;7.90;99.90;;;;;;6210313;23;20024;-79
2023/11/08 00:32:59;;;;;;;0.52;0.40;;;7.90;99.90;;;;;;6209275;23;20081;-79
2023/11/08 00:35:26;;;;;;;0.50;0.30;;;7.90;99.90;;;;;;6210873;23;20734;-79
2023/11/08 00:37:53;;;;;;;0.32;0.30;;;7.90;99.90;;;;;;6237141;23;20461;-80
2023/11/08 00:40:20;;;;;;;0.38;0.20;;;7.90;99.90;;;;;;6211145;23;20031;-79
2023/11/08 00:42:46;;;;;;;0.30;0.30;;;7.90;99.90;;;;;;6210708;23;20050;-79
2023/11/08 00:45:14;;;;;;;0.40;0.30;;;7.80;99.90;;;;;;6210326;23;20062;-79
2023/11/08 00:47:43;;;;;;;0.52;0.20;;;7.80;99.90;;;;;;6210142;23;20122;-79
2023/11/08 00:50:10;;;;;;;0.30;0.20;;;7.90;99.90;;;;;;6235562;23;20024;-79
2023/11/08 00:52:37;;;;;;;0.63;0.40;;;7.90;99.90;;;;;;6237321;23;20024;-79
2023/11/08 00:55:05;;;;;;;0.38;0.30;;;7.90;99.90;;;;;;6236150;23;20028;-79
2023/11/08 00:57:32;;;;;;;0.45;0.40;;;7.90;99.90;;;;;;6210539;23;20035;-79
2023/11/08 00:59:59;;;;;;;0.20;0.20;;;8.00;99.90;;;;;;6210732;23;20028;-79
2023/11/08 01:02:26;;;;;;;0.40;0.32;;;8.00;99.90;;;;;;6207254;23;20016;-79
2023/11/08 01:04:53;;;;;;;0.50;0.40;;;8.00;99.90;;;;;;6231079;23;20042;-79
2023/11/08 01:07:20;;;;;;;0.30;0.30;;;8.00;99.90;;;;;;6207650;23;20435;-79
2023/11/08 01:09:46;;;;;;;0.52;0.40;;;8.10;99.90;;;;;;6211037;23;20020;-78
2023/11/08 01:12:14;;;;;;;0.50;0.30;;;8.10;99.60;;;;;;6210037;23;20020;-79
2023/11/08 01:14:41;;;;;;;0.65;0.40;;;8.10;91.40;;;;;;6236985;23;20066;-79
2023/11/08 01:17:10;;;;;;;0.80;0.43;;;8.10;50.90;;;;;;6185090;23;20158;-79
2023/11/08 01:19:36;;;;;;;0.50;0.40;;;8.10;23.90;;;;;;6185645;23;20031;-79
2023/11/08 01:22:09;;;;;;;1.27;0.30;;;8.10;17.60;;;;;;6210116;23;20087;-79
2023/11/08 01:24:36;;;;;;;0.30;0.30;;;8.10;7.20;;;;;;6210903;23;20196;-80
2023/11/08 01:27:03;;;;;;;0.35;0.20;;;8.10;1.00;;;;;;6235178;23;20090;-79
2023/11/08 01:29:32;;;;;;;0.63;0.40;;;8.10;1.00;;;;;;6210670;23;20211;-80
2023/11/08 01:31:58;;;;;;;0.28;0.28;;;8.10;1.00;;;;;;6233847;23;20020;-80
2023/11/08 01:34:25;;;;;;;0.60;0.30;;;8.10;1.00;;;;;;6185442;23;20028;-79
2023/11/08 01:36:53;;;;;;;0.28;0.28;;;8.10;1.00;;;;;;6209781;23;20055;-80
2023/11/08 01:39:20;;;;;;;0.20;0.20;;;8.10;1.00;;;;;;6235503;23;20442;-80
2023/11/08 01:41:48;;;;;;;0.45;0.35;;;8.00;1.00;;;;;;6185323;23;20118;-79
2023/11/08 01:44:18;;;;;;;0.28;0.20;;;7.90;1.00;;;;;;6185794;23;20086;-80
2023/11/08 01:46:47;;;;;;;1.58;0.57;;;7.90;1.00;;;;;;6209356;23;20074;-79
2023/11/08 01:49:13;;;;;;;0.45;0.25;;;7.90;27.30;;;;;;6235279;23;20024;-79
2023/11/08 01:51:41;;;;;;;0.30;0.30;;;7.80;98.90;;;;;;6185485;23;20017;-80
2023/11/08 01:54:07;;;;;;;0.60;0.20;;;7.80;99.90;;;;;;6210498;23;20020;-79
2023/11/08 01:56:34;;;;;;;0.22;0.22;;;7.80;99.90;;;;;;6234733;23;20102;-79
2023/11/08 01:59:05;;;;;;;0.30;0.30;;;7.70;99.90;;;;;;6187092;23;20031;-80
2023/11/08 02:01:32;;;;;;;0.40;0.30;;;7.70;99.90;;;;;;6208689;23;20210;-80
2023/11/08 02:03:59;;;;;;;0.85;0.45;;;7.70;99.90;;;;;;6184651;23;20078;-80
2023/11/08 02:06:26;;;;;;;0.52;0.30;;;7.70;99.90;;;;;;6210501;23;20024;-80
2023/11/08 02:08:53;;;;;;;0.30;0.30;;;7.70;99.90;;;;;;6210644;23;20048;-80
2023/11/08 02:11:20;;;;;;;0.30;0.30;;;7.80;99.90;;;;;;6210055;23;20082;-80
2023/11/08 02:13:46;;;;;;;0.68;0.40;;;7.80;99.90;;;;;;6234181;23;20528;-80
2023/11/08 02:16:13;;;;;;;0.57;0.45;;;7.80;99.90;;;;;;6234929;23;20074;-79
2023/11/08 02:18:40;;;;;;;0.50;0.40;;;7.80;99.90;;;;;;6208903;23;20505;-80
2023/11/08 02:21:07;;;;;;;0.47;0.20;;;7.80;99.90;;;;;;6210389;23;20204;-79
2023/11/08 02:23:34;;;;;;;0.20;0.20;;;7.80;99.90;;;;;;6234986;23;20085;-80
2023/11/08 02:26:00;;;;;;;0.20;0.20;;;7.80;99.90;;;;;;6209968;23;20447;-79
2023/11/08 02:28:27;;;;;;;0.20;0.20;;;7.70;99.90;;;;;;6236208;23;20028;-79
2023/11/08 02:30:54;;;;;;;0.20;0.20;;;7.70;99.90;;;;;;6183968;23;20016;-80
2023/11/08 02:33:26;;;;;;;0.30;0.20;;;7.70;99.90;;;;;;6183926;23;20066;-80
2023/11/08 02:35:53;;;;;;;0.10;0.10;;;7.70;99.90;;;;;;6233797;23;20027;-79
2023/11/08 02:38:20;;;;;;;0.28;0.28;;;7.70;99.90;;;;;;6184552;23;20082;-79
2023/11/08 02:40:47;;;;;;;0.20;0.20;;;7.70;99.90;;;;;;6187655;23;20030;-80
2023/11/08 02:43:13;;;;;;;0.20;0.20;;;7.70;99.90;;;;;;6236647;23;20051;-79
2023/11/08 02:45:40;;;;;;;0.20;0.20;;;7.70;99.90;;;;;;6211208;23;20026;-79
2023/11/08 02:48:08;;;;;;;0.32;0.30;;;7.80;99.90;;;;;;6208940;23;20022;-78
2023/11/08 02:50:37;;;;;;;0.43;0.20;;;7.80;99.90;;;;;;6210862;23;20024;-79
2023/11/08 02:53:04;;;;;;;0.28;0.17;;;7.80;99.90;;;;;;6235168;23;20027;-79
2023/11/08 02:55:32;;;;;;;0.25;0.20;;;7.80;99.90;;;;;;6209746;23;20020;-79
2023/11/08 02:57:58;;;;;;;0.32;0.15;;;7.80;99.90;;;;;;6209373;23;20020;-79
2023/11/08 03:00:26;;;;;;;0.32;0.22;;;7.80;99.90;;;;;;6209560;23;20028;-79
2023/11/08 03:02:53;;;;;;;0.10;0.10;;;7.80;99.90;;;;;;6234666;23;20020;-79
2023/11/08 03:05:22;;;;;;;0.32;0.20;;;7.80;99.90;;;;;;6209993;23;20086;-79
2023/11/08 03:07:50;;;;;;;0.25;0.20;;;7.80;99.90;;;;;;6185569;23;20107;-79
2023/11/08 03:10:18;;;;;;;0.30;0.20;;;7.80;99.90;;;;;;6210224;23;20028;-79
2023/11/08 03:12:46;;;;;;;0.35;0.20;;;7.80;99.90;;;;;;6210057;23;20020;-79
2023/11/08 03:15:14;;;;;;;0.28;0.20;;;7.70;99.90;;;;;;6210113;23;20024;-79
2023/11/08 03:17:42;;;;;;;0.57;0.30;;;7.70;99.90;;;;;;6209383;23;20021;-79
2023/11/08 03:20:12;;;;;;;0.10;0.10;;;7.70;99.90;;;;;;6185088;23;20024;-79
2023/11/08 03:22:39;;;;;;;0.98;0.55;;;7.70;99.90;;;;;;6235382;23;20021;-80
2023/11/08 03:25:11;;;;;;;0.38;0.35;;;7.70;1.00;;;;;;6210212;23;20074;-79
2023/11/08 03:27:42;;;;;;;0.30;0.20;;;7.80;1.00;;;;;;6185955;23;20020;-79
2023/11/08 03:30:10;;;;;;;0.30;0.20;;;7.80;1.00;;;;;;6236467;23;20347;-79
2023/11/08 03:32:38;;;;;;;0.30;0.30;;;7.90;1.00;;;;;;6183687;23;20059;-79
2023/11/08 03:35:05;;;;;;;1.00;0.50;;;7.90;2.10;;;;;;6184677;23;20108;-79
2023/11/08 03:37:40;;;;;;;0.65;0.30;;;7.90;99.90;;;;;;6210405;23;20074;-79
2023/11/08 03:40:11;;;;;;;0.20;0.20;;;8.00;99.90;;;;;;6185372;23;20046;-79
2023/11/08 03:42:40;;;;;;;0.28;0.20;;;8.00;99.90;;;;;;6185920;23;20052;-80
2023/11/08 03:45:08;;;;;;;0.32;0.30;;;8.10;99.90;;;;;;6209887;23;20034;-79
2023/11/08 03:47:36;;;;;;;0.25;0.22;;;8.10;99.90;;;;;;6184560;23;20020;-79
2023/11/08 03:50:03;;;;;;;0.35;0.30;;;8.20;99.90;;;;;;6210103;23;20130;-79
2023/11/08 03:52:30;;;;;;;0.47;0.20;;;8.10;99.90;;;;;;6210240;23;20016;-79
2023/11/08 03:55:00;;;;;;;0.20;0.20;;;8.20;99.90;;;;;;6210496;23;20023;-79
2023/11/08 03:57:28;;;;;;;0.38;0.30;;;8.20;99.90;;;;;;6185979;23;20047;-78
2023/11/08 03:59:55;;;;;;;0.45;0.30;;;8.20;99.90;;;;;;6210594;23;20079;-79
2023/11/08 04:02:22;;;;;;;0.65;0.20;;;8.20;99.90;;;;;;6234454;23;20308;-79
2023/11/08 04:04:50;;;;;;;0.43;0.30;;;8.30;99.90;;;;;;6209430;23;20111;-79
2023/11/08 04:07:18;;;;;;;0.20;0.20;;;8.30;99.90;;;;;;6212021;23;20610;-79
2023/11/08 04:09:45;;;;;;;0.50;0.30;;;8.30;99.90;;;;;;6212212;23;20039;-79
2023/11/08 04:12:12;;;;;;;0.65;0.20;;;8.30;99.90;;;;;;6236530;23;20629;-79
2023/11/08 04:14:39;;;;;;;0.47;0.30;;;8.30;99.90;;;;;;6212243;23;20355;-79
2023/11/08 04:17:10;;;;;;;0.20;0.10;;;8.30;99.90;;;;;;6210366;23;20028;-79
2023/11/08 04:19:37;;;;;;;0.20;0.20;;;8.40;99.90;;;;;;6238748;23;20324;-79
2023/11/08 04:22:05;;;;;;;0.20;0.20;;;8.40;99.90;;;;;;6211202;23;20107;-79
2023/11/08 04:24:33;;;;;;;0.20;0.20;;;8.40;94.80;;;;;;6237294;23;20081;-79
2023/11/08 04:27:02;;;;;;;0.20;0.10;;;8.40;98.10;;;;;;6211321;23;20050;-79
2023/11/08 04:29:31;;;;;;;0.85;0.30;;;8.40;99.90;;;;;;6212697;23;20051;-79
2023/11/08 04:31:58;;;;;;;0.93;0.40;;;8.40;99.90;;;;;;6210379;23;20031;-79
2023/11/08 04:34:25;;;;;;;1.20;0.30;;;8.50;99.90;;;;;;6186955;23;20027;-79
2023/11/08 04:36:52;;;;;;;0.28;0.20;;;8.60;99.90;;;;;;6211511;23;20028;-79
2023/11/08 04:39:21;;;;;;;0.40;0.13;;;8.60;99.90;;;;;;6211823;23;20043;-80
2023/11/08 04:41:49;;;;;;;0.75;0.40;;;8.70;99.90;;;;;;6210865;23;20035;-79
2023/11/08 04:44:16;;;;;;;0.30;0.30;;;8.70;99.90;;;;;;6236431;23;20455;-80
2023/11/08 04:46:43;;;;;;;0.43;0.30;;;8.80;97.60;;;;;;6210833;23;20432;-79
2023/11/08 04:49:12;;;;;;;1.02;0.50;;;8.80;29.70;;;;;;6211026;23;20051;-80
2023/11/08 04:51:39;;;;;;;0.70;0.43;;;8.90;1.00;;;;;;6186915;23;20024;-80
2023/11/08 04:54:06;;;;;;;0.40;0.40;;;8.90;1.00;;;;;;6238235;23;20031;-80
2023/11/08 04:56:33;;;;;;;0.30;0.30;;;8.90;1.00;;;;;;6210716;23;20031;-80
2023/11/08 04:59:00;;;;;;;0.77;0.30;;;8.90;1.00;;;;;;6210968;23;20074;-80
2023/11/08 05:01:29;;;;;;;1.02;0.35;;;9.00;1.00;;;;;;6210215;23;20320;-79
2023/11/08 05:03:59;;;;;;;0.65;0.28;;;9.00;99.90;;;;;;6236883;23;20231;-79
2023/11/08 05:06:27;;;;;;;0.68;0.22;;;9.10;99.90;;;;;;6186586;23;20030;-79
2023/11/08 05:08:54;;;;;;;0.25;0.25;;;9.10;99.90;;;;;;6211749;23;20311;-79
2023/11/08 05:11:21;;;;;;;0.20;0.20;;;9.10;99.90;;;;;;6236499;23;20024;-79
2023/11/08 05:13:48;;;;;;;1.02;0.60;;;9.20;99.90;;;;;;6235636;23;20021;-79
2023/11/08 05:16:20;;;;;;;1.23;0.30;;;9.20;99.90;;;;;;6235280;23;20039;-80
2023/11/08 05:18:48;;;;;;;0.88;0.40;;;9.20;99.90;;;;;;6210334;23;20024;-79
2023/11/08 05:21:15;;;;;;;0.70;0.40;;;9.20;99.90;;;;;;6210848;23;20607;-79
2023/11/08 05:23:42;;;;;;;0.93;0.30;;;9.30;97.40;;;;;;6237614;23;20066;-80
2023/11/08 05:26:09;;;;;;;0.85;0.40;;;9.30;68.20;;;;;;6235896;23;20686;-80
2023/11/08 05:28:37;;;;;;;1.27;0.68;;;9.30;29.90;;;;;;6235644;23;20086;-79
2023/11/08 05:31:04;;;;;;;0.60;0.40;;;9.40;1.00;;;;;;6204932;23;20035;-79
2023/11/08 05:33:31;;;;;;;0.45;0.30;;;9.40;1.00;;;;;;6179078;23;20028;-80
2023/11/08 05:35:59;;;;;;;0.85;0.50;;;9.40;1.00;;;;;;6207584;23;20024;-79
2023/11/08 05:38:26;;;;;;;0.30;0.30;;;9.50;1.00;;;;;;6205227;23;20528;-79
2023/11/08 05:40:53;;;;;;;1.23;0.52;;;9.50;1.00;;;;;;6206338;23;20031;-79
2023/11/08 05:43:21;;;;;;;0.38;0.32;;;9.50;1.00;;;;;;6205145;23;20447;-80
2023/11/08 05:45:48;;;;;;;0.95;0.50;;;9.60;1.00;;;;;;6205449;23;20032;-80
2023/11/08 05:48:16;;;;;;;0.28;0.28;;;9.60;1.00;;;;;;6177382;23;20048;-79
2023/11/08 05:50:44;;;;;;;0.65;0.30;;;9.60;1.00;;;;;;6203435;23;20044;-79
2023/11/08 05:53:14;;;;;;;0.70;0.30;;;9.60;1.00;;;;;;6178644;23;20047;-79
2023/11/08 05:55:41;;;;;;;0.40;0.40;;;9.70;1.00;;;;;;6203766;23;20024;-79
2023/11/08 05:58:08;;;;;;;1.08;0.43;;;9.70;1.00;;;;;;6202608;23;20027;-79
2023/11/08 06:00:40;;;;;;;1.55;0.40;;;9.70;1.00;;;;;;6203147;23;20075;-80
2023/11/08 06:03:07;;;;;;;0.50;0.40;;;9.80;1.00;;;;;;6175116;23;20107;-79
2023/11/08 06:05:34;;;;;;;0.55;0.30;;;9.80;28.80;;;;;;6176434;23;20108;-80
2023/11/08 06:08:03;;;;;;;0.40;0.30;;;9.80;91.50;;;;;;6199555;23;20032;-80
2023/11/08 06:10:31;;;;;;;0.88;0.40;;;9.80;99.90;;;;;;6174659;23;20017;-80
2023/11/08 06:12:58;;;;;;;0.70;0.38;;;9.90;99.90;;;;;;6199590;23;20030;-80
2023/11/08 06:15:25;;;;;;;0.60;0.40;;;9.80;99.90;;;;;;6174759;23;20036;-80
2023/11/08 06:17:54;;;;;;;1.23;0.47;;;9.80;1.00;;;;;;6199309;23;20024;-80
2023/11/08 06:20:22;;;;;;;1.25;0.50;;;9.90;99.90;;;;;;6199519;23;20028;-80
2023/11/08 06:22:49;;;;;;;2.25;0.70;;;9.90;99.90;;;;;;6203556;23;20075;-81
2023/11/08 06:25:16;;;;;;;1.25;0.60;;;9.90;1.00;;;;;;6174445;23;20396;-80
2023/11/08 06:27:43;;;;;;;2.03;0.40;;;9.90;1.00;;;;;;6199502;23;20024;-80
2023/11/08 06:30:11;;;;;;;1.13;0.60;;;9.90;48.20;;;;;;6176820;23;20020;-80
2023/11/08 06:32:38;;;;;;;1.00;0.50;;;9.90;99.90;;;;;;6231423;23;20020;-80
2023/11/08 06:35:05;;;;;;;1.17;0.50;;;9.90;99.90;;;;;;6208981;23;20028;-80
2023/11/08 06:37:33;;;;;;;0.60;0.50;;;9.80;99.90;;;;;;6206051;23;20054;-80
2023/11/08 06:39:59;;;;;;;0.22;0.22;;;9.90;1.00;;;;;;6204766;23;20035;-81
2023/11/08 06:42:26;;;;;;;0.65;0.30;;;9.80;98.30;;;;;;6231010;23;20046;-80
2023/11/08 06:44:53;;;;;;;1.20;0.68;;;9.80;99.90;;;;;;6229936;23;20103;-79
2023/11/08 06:47:20;;;;;;;0.50;0.40;;;9.80;1.00;;;;;;6229468;23;20020;-79
2023/11/08 06:49:47;;;;;;;0.90;0.47;;;9.90;1.00;;;;;;6223741;23;20066;-80
2023/11/08 06:52:14;;;;;;;1.65;0.50;;;9.90;83.10;;;;;;6204454;23;20023;-80
2023/11/08 06:54:41;;;;;;;1.67;0.60;;;9.90;99.90;;;;;;6233207;23;20031;-80
2023/11/08 06:57:09;;;;;;;0.40;0.40;;;9.90;99.90;;;;;;6229953;23;20486;-85
2023/11/08 06:59:36;;;;;;;1.00;0.40;;;10.00;99.90;;;;;;6228856;23;20480;-80
2023/11/08 07:02:03;;;;;;;1.65;0.50;;;10.00;99.90;;;;;;6201287;23;20023;-79
2023/11/08 07:04:31;;;;;;;2.35;0.65;;;10.10;1.00;;;;;;6203740;23;20016;-79
2023/11/08 07:07:00;;;;;;;1.60;0.60;;;10.10;1.00;;;;;;6205336;23;20035;-80
2023/11/08 07:09:26;;;;;;;1.35;0.43;;;10.20;91.40;;;;;;6207647;23;20020;-79
2023/11/08 07:11:54;;;;;;;1.48;0.40;;;10.20;99.90;;;;;;6183785;23;20024;-79
2023/11/08 07:14:20;;;;;;;1.10;0.30;;;10.30;99.90;;;;;;6182986;23;20016;-80
2023/11/08 07:16:47;;;;;;;0.95;0.60;;;10.30;99.90;;;;;;6231853;23;20106;-80
2023/11/08 07:19:14;;;;;;;1.65;0.40;;;10.40;99.90;;;;;;6206310;23;20035;-79
2023/11/08 07:21:41;;;;;;;1.58;0.68;;;10.40;99.90;;;;;;6205958;23;20114;-79
2023/11/08 07:24:08;;;;;;;1.35;0.50;;;10.50;99.90;;;;;;6229247;23;20024;-79
2023/11/08 07:26:35;;;;;;;0.45;0.45;;;10.50;99.90;;;;;;6232062;23;20048;-79
2023/11/08 07:29:05;;;;;;;0.88;0.40;;;10.50;99.90;;;;;;6208399;23;20039;-79
2023/11/08 07:31:32;;;;;;;1.63;0.70;;;10.60;99.90;;;;;;6205730;23;20020;-81
2023/11/08 07:34:00;;;;;;;1.63;0.68;;;10.60;1.00;;;;;;6204413;23;20095;-78
2023/11/08 07:36:29;;;;;;;0.57;0.50;;;10.70;1.00;;;;;;6180999;23;20431;-78
2023/11/08 07:39:01;;;;;;;1.15;0.50;;;10.70;1.00;;;;;;6232711;23;20441;-78
2023/11/08 07:41:32;;;;;;;2.10;0.63;;;10.70;1.00;;;;;;6234629;23;20059;-77
2023/11/08 07:44:00;;;;;;;1.95;0.60;;;10.70;1.00;;;;;;6235403;23;20074;-78
2023/11/08 07:46:27;;;;;;;0.85;0.50;;;10.70;1.00;;;;;;6234091;23;20021;-78
2023/11/08 07:48:55;;;;;;;1.95;0.60;;;10.70;1.00;;;;;;6206479;23;20155;-78
2023/11/08 07:51:23;;;;;;;0.57;0.50;;;10.70;10.10;;;;;;6232633;23;20020;-78
2023/11/08 07:53:50;;;;;;;0.60;0.60;;;10.80;47.20;;;;;;6207633;23;20099;-78
2023/11/08 07:56:18;;;;;;;2.17;0.65;;;10.80;65.00;;;;;;6235104;23;20024;-77
2023/11/08 07:58:44;;;;;;;1.15;0.75;;;10.80;99.90;;;;;;6210619;23;20016;-78
2023/11/08 08:01:11;;;;;;;1.33;0.68;;;10.80;99.90;;;;;;6204143;23;20434;-78
2023/11/08 08:03:38;;;;;;;0.77;0.50;;;10.90;99.90;;;;;;6234450;23;20066;-78
2023/11/08 08:06:06;;;;;;;0.57;0.40;;;10.90;99.90;;;;;;6207950;23;20539;-78
2023/11/08 08:08:33;;;;;;;1.35;0.40;;;10.80;99.90;;;;;;6207300;23;20036;-79
2023/11/08 08:11:00;;;;;;;1.00;0.47;;;10.90;1.00;;;;;;6235353;23;20050;-79
2023/11/08 08:13:27;;;;;;;0.80;0.38;;;10.90;1.00;;;;;;6235230;23;20020;-79
2023/11/08 08:15:59;;;;;;;1.50;0.50;;;10.90;1.00;;;;;;6237839;23;20106;-79
2023/11/08 08:18:26;;;;;;;0.77;0.40;;;11.00;13.60;;;;;;6234695;23;20537;-79
2023/11/08 08:20:54;;;;;;;0.65;0.40;;;11.00;8.30;;;;;;6210156;23;20055;-79
2023/11/08 08:23:21;;;;;;;1.00;0.60;;;11.10;52.50;;;;;;6210614;23;20020;-79
2023/11/08 08:25:48;;;;;;;0.95;0.40;;;11.10;68.50;;;;;;6209715;23;20309;-79
2023/11/08 08:28:14;;;;;;;1.80;0.60;;;11.10;99.90;;;;;;6208681;23;20181;-76
2023/11/08 08:30:41;;;;;;;1.15;0.30;;;11.10;99.90;;;;;;6236671;23;20020;-79
2023/11/08 08:33:08;;;;;;;0.90;0.30;;;11.20;99.90;;;;;;6207674;23;20024;-79
2023/11/08 08:35:35;;;;;;;0.43;0.30;;;11.20;99.90;;;;;;6210054;23;20087;-77
2023/11/08 08:38:02;;;;;;;1.88;0.50;;;11.20;99.90;;;;;;6236442;23;20128;-76
2023/11/08 08:40:30;;;;;;;1.13;0.38;;;11.20;99.90;;;;;;6236275;23;20067;-77
2023/11/08 08:42:57;;;;;;;0.80;0.32;;;11.20;99.90;;;;;;6236454;23;20028;-76
2023/11/08 08:45:24;;;;;;;0.50;0.20;;;11.20;99.90;;;;;;6235833;23;20020;-76
2023/11/08 08:47:53;;;;;;;2.17;0.50;;;11.20;99.90;;;;;;6235979;23;20671;-76
2023/11/08 08:50:20;;;;;;;1.30;0.55;;;11.20;99.90;;;;;;6210956;23;20306;-76
2023/11/08 08:52:47;;;;;;;0.50;0.30;;;11.30;99.90;;;;;;6236830;23;20016;-77
2023/11/08 08:55:14;;;;;;;2.92;0.85;;;11.40;89.00;;;;;;6235744;23;20027;-76
2023/11/08 08:57:46;;;;;;;1.38;0.57;;;11.40;1.00;;;;;;6234879;23;20025;-77
2023/11/08 09:00:15;;;;;;;1.02;0.50;;;11.50;44.40;;;;;;6236739;23;20028;-77
2023/11/08 09:02:43;;;;;;;1.00;0.30;;;11.50;97.90;;;;;;6235879;23;20061;-77
2023/11/08 09:05:18;;;;;;;0.55;0.43;;;11.50;94.30;;;;;;6235176;23;20533;-77
2023/11/08 09:07:45;;;;;;;1.60;0.65;;;11.60;99.90;;;;;;6237196;23;20031;-77
2023/11/08 09:10:12;;;;;;;1.10;0.52;;;11.60;99.90;;;;;;6235303;23;20027;-77
2023/11/08 09:12:38;;;;;;;1.08;0.50;;;11.60;99.90;;;;;;6235423;23;20091;-77
2023/11/08 09:15:06;;;;;;;0.90;0.50;;;11.70;99.90;;;;;;6231540;23;20111;-76
2023/11/08 09:17:33;;;;;;;1.30;0.52;;;11.70;32.40;;;;;;6204497;23;20024;-76
2023/11/08 09:20:04;;;;;;;2.47;0.70;;;11.70;28.20;;;;;;6233980;23;20070;-77
2023/11/08 09:22:31;;;;;;;0.90;0.57;;;11.80;1.00;;;;;;6236020;23;20080;-77
2023/11/08 09:24:58;;;;;;;1.20;0.57;;;11.80;99.90;;;;;;6231469;23;20062;-77
2023/11/08 09:27:25;;;;;;;0.65;0.50;;;11.70;99.90;;;;;;6232530;23;20450;-76
2023/11/08 09:29:52;;;;;;;1.38;0.60;;;11.70;99.90;;;;;;6231325;23;20324;-76
2023/11/08 09:32:19;;;;;;;3.10;0.50;;;11.80;99.90;;;;;;6232052;23;20082;-76
2023/11/08 09:34:49;;;;;;;0.65;0.52;;;11.80;99.90;;;;;;6233640;23;20370;-76
2023/11/08 09:37:16;;;;;;;0.95;0.50;;;11.80;99.90;;;;;;6232874;23;20077;-76
2023/11/08 09:39:49;;;;;;;1.05;0.52;;;11.90;1.00;;;;;;6234708;23;20031;-76
2023/11/08 09:42:17;;;;;;;1.08;0.52;;;11.90;1.00;;;;;;6230745;23;20031;-76
2023/11/08 09:44:46;;;;;;;2.05;0.60;;;11.90;1.00;;;;;;6226311;23;20020;-76
2023/11/08 09:47:16;;;;;;;1.35;0.60;;;11.90;1.00;;;;;;6178266;23;20115;-76
2023/11/08 09:49:50;;;;;;;1.02;0.55;;;12.00;1.00;;;;;;6207182;23;20040;-77
2023/11/08 09:52:17;;;;;;;0.80;0.30;;;12.00;1.00;;;;;;6210456;23;20059;-76
2023/11/08 09:54:44;;;;;;;1.92;0.50;;;12.10;99.90;;;;;;6235131;23;20025;-77
2023/11/08 09:57:12;;;;;;;0.80;0.35;;;12.10;1.00;;;;;;6232333;23;20028;-77
2023/11/08 09:59:39;;;;;;;0.75;0.40;;;12.20;99.90;;;;;;6232578;23;20444;-78
2023/11/08 10:02:08;;;;;;;0.25;0.20;;;12.30;1.00;;;;;;6230258;23;20028;-77
2023/11/08 10:04:34;;;;;;;0.40;0.32;;;12.40;1.00;;;;;;6233971;23;20521;-77
2023/11/08 10:07:12;;;;;;;1.30;0.77;;;12.50;1.00;;;;;;6208671;23;20320;-77
2023/11/08 10:09:39;;;;;;;0.30;0.30;;;12.60;99.90;;;;;;6205338;23;20086;-77
2023/11/08 10:12:08;;;;;;;0.30;0.30;;;12.70;99.90;;;;;;6230957;23;20024;-77
2023/11/08 10:14:36;;;;;;;0.65;0.43;;;12.70;74.90;;;;;;6206365;23;20302;-77
2023/11/08 10:17:03;;;;;;;0.28;0.28;;;12.60;99.90;;;;;;6203738;23;20063;-77
2023/11/08 10:19:40;;;;;;;0.20;0.20;;;12.60;99.90;;;;;;6231668;23;20020;-77
2023/11/08 10:22:22;;;;;;;0.30;0.30;;;12.60;99.90;;;;;;6232252;23;20444;-77
2023/11/08 10:25:00;;;;;;;0.20;0.20;;;12.60;99.90;;;;;;6205104;23;20078;-77
2023/11/08 10:27:28;;;;;;;0.73;0.32;;;12.70;1.00;;;;;;6205393;23;20423;-77
2023/11/08 10:30:18;;;;;;;1.90;0.65;;;12.70;80.80;;;;;;6232372;23;20031;-77
2023/11/08 10:32:45;;;;;;;0.52;0.35;;;12.70;1.00;;;;;;6204453;23;20067;-77
2023/11/08 10:35:19;;;;;;;1.00;0.40;;;12.70;1.00;;;;;;6230278;23;20020;-77
2023/11/08 10:37:48;;;;;;;0.95;0.60;;;12.70;33.90;;;;;;6206649;23;20069;-77
2023/11/08 10:40:15;;;;;;;0.30;0.30;;;12.70;1.00;;;;;;6209637;23;20051;-77
2023/11/08 10:42:49;;;;;;;0.20;0.20;;;12.80;99.90;;;;;;6209435;23;20074;-77
2023/11/08 10:45:19;;;;;;;0.35;0.35;;;12.80;1.00;;;;;;6181496;23;20325;-77
2023/11/08 10:47:45;;;;;;;0.85;0.30;;;12.90;1.00;;;;;;6230396;23;20020;-77
2023/11/08 10:50:12;;;;;;;0.43;0.20;;;13.00;99.90;;;;;;6182735;23;20055;-77
2023/11/08 10:52:39;;;;;;;0.68;0.40;;;13.10;99.90;;;;;;6209781;23;20024;-78
2023/11/08 10:55:08;;;;;;;0.90;0.40;;;13.10;99.90;;;;;;6235244;23;20024;-77
2023/11/08 10:57:36;;;;;;;1.02;0.40;;;13.10;99.90;;;;;;6207938;23;20024;-77
2023/11/08 11:00:04;;;;;;;1.45;0.40;;;13.00;1.00;;;;;;6180395;23;20426;-77
2023/11/08 11:02:59;;;;;;;0.82;0.20;;;13.00;1.00;;;;;;6232837;23;20032;-77
2023/11/08 11:05:27;;;;;;;1.88;0.50;;;13.10;1.00;;;;;;6236281;23;20127;-77
2023/11/08 11:07:59;;;;;;;0.63;0.40;;;13.00;99.90;;;;;;6185443;23;20095;-77
2023/11/08 11:10:27;;;;;;;0.73;0.25;;;13.10;34.00;;;;;;6210785;23;20098;-78
2023/11/08 11:13:03;;;;;;;0.90;0.30;;;13.10;99.90;;;;;;6236229;23;20047;-77
2023/11/08 11:15:34;;;;;;;0.80;0.45;;;13.20;1.00;;;;;;6236501;23;20046;-78
2023/11/08 11:18:01;;;;;;;0.80;0.40;;;13.30;99.90;;;;;;6211279;23;20141;-77
2023/11/08 11:20:32;;;;;;;0.70;0.35;;;13.40;99.90;;;;;;6211435;23;20087;-77
2023/11/08 11:22:59;;;;;;;0.95;0.57;;;13.40;39.90;;;;;;6210187;23;20027;-77
2023/11/08 11:25:45;;;;;;;0.25;0.25;;;13.40;1.00;;;;;;6208364;23;20074;-78
2023/11/08 11:28:12;;;;;;;1.45;0.98;;;13.40;99.90;;;;;;6232517;23;20020;-78
2023/11/08 11:30:39;;;;;;;0.85;0.22;;;13.40;10.50;;;;;;6211046;23;20070;-77
2023/11/08 11:33:05;;;;;;;1.20;0.32;;;13.40;99.90;;;;;;6210850;23;20023;-78
2023/11/08 11:35:35;;;;;;;0.70;0.40;;;13.50;1.00;;;;;;6236829;23;20020;-78
2023/11/08 11:38:12;;;;;;;0.75;0.50;;;13.50;1.00;;;;;;6211674;23;20086;-77
2023/11/08 11:40:43;;;;;;;0.85;0.40;;;13.50;10.90;;;;;;6238189;23;20020;-78
2023/11/08 11:43:41;;;;;;;0.95;0.32;;;13.40;99.90;;;;;;6211934;23;20028;-78
2023/11/08 11:46:08;;;;;;;1.85;0.50;;;13.40;99.90;;;;;;6238087;23;20087;-78
2023/11/08 11:48:35;;;;;;;1.10;0.30;;;13.40;99.90;;;;;;6234456;23;20511;-77
2023/11/08 11:51:02;;;;;;;0.55;0.30;;;13.40;74.80;;;;;;6211738;23;20082;-78
2023/11/08 11:53:29;;;;;;;1.35;0.50;;;13.40;1.00;;;;;;6236912;23;20028;-78
2023/11/08 11:56:06;;;;;;;1.83;0.70;;;13.40;75.70;;;;;;6238136;23;20208;-78
2023/11/08 11:58:33;;;;;;;1.45;0.38;;;13.50;99.90;;;;;;6186560;23;20351;-78
2023/11/08 12:01:00;;;;;;;1.85;0.60;;;13.50;1.00;;;;;;6235627;23;20494;-78
2023/11/08 12:03:27;;;;;;;1.20;0.52;;;13.60;99.90;;;;;;6209937;23;20074;-78
2023/11/08 12:05:55;;;;;;;0.77;0.40;;;13.70;99.90;;;;;;6211278;23;20442;-78
2023/11/08 12:08:28;;;;;;;1.15;0.40;;;13.80;99.90;;;;;;6210908;23;20035;-78
2023/11/08 12:11:15;;;;;;;;;;;13.90;99.90;;;;;;6211624;23;20439;-78
2023/11/08 12:14:00;;;;;;;1.52;0.50;;;14.00;99.90;;;;;;6236745;23;19915;-78
2023/11/08 12:16:29;;;;;;;1.83;0.47;;;14.00;1.00;;;;;;6236614;23;20530;-78
2023/11/08 12:18:56;;;;;;;0.95;0.40;;;14.00;1.00;;;;;;6233637;23;20020;-78
2023/11/08 12:21:26;;;;;;;0.40;0.30;;;14.00;1.00;;;;;;6231412;23;20024;-78
2023/11/08 12:23:53;;;;;;;1.38;0.40;;;14.00;1.00;;;;;;6233214;23;20121;-78
2023/11/08 12:26:20;;;;;;;0.30;0.30;;;13.90;99.90;;;;;;6182082;23;20082;-79
2023/11/08 12:28:46;;;;;;;1.00;0.57;;;14.00;67.80;;;;;;6232182;23;20339;-78
2023/11/08 12:31:18;;;;;;;0.82;0.40;;;13.90;99.90;;;;;;6235009;23;20036;-78
2023/11/08 12:33:45;;;;;;;2.20;0.60;;;13.90;99.90;;;;;;6236614;23;20449;-78
2023/11/08 12:36:12;;;;;;;0.45;0.38;;;13.90;69.20;;;;;;6211457;23;20127;-79
2023/11/08 12:38:39;;;;;;;0.75;0.55;;;13.90;1.00;;;;;;6211057;23;20020;-78
2023/11/08 12:41:07;;;;;;;1.23;0.50;;;13.90;1.00;;;;;;6211406;23;20016;-78
2023/11/08 12:43:34;;;;;;;1.60;0.50;;;13.90;1.00;;;;;;6210200;23;20082;-78
2023/11/08 12:46:21;;;;;;;1.00;0.30;;;13.90;99.90;;;;;;6214879;23;20112;-78
2023/11/08 12:49:12;;;;;;;0.40;0.30;;;14.00;34.50;;;;;;6232114;23;20518;-79
2023/11/08 12:51:40;;;;;;;0.63;0.30;;;14.00;99.90;;;;;;6182227;23;20036;-78
2023/11/08 12:54:15;;;;;;;1.00;0.55;;;14.00;28.60;;;;;;6210589;23;20031;-78
2023/11/08 12:56:41;;;;;;;1.60;0.63;;;14.00;2.80;;;;;;6234817;23;20059;-78
2023/11/08 12:59:14;;;;;;;0.43;0.35;;;14.00;99.90;;;;;;6211184;23;20597;-79
2023/11/08 13:01:49;;;;;;;0.60;0.32;;;14.00;99.90;;;;;;6234637;23;20095;-78